createdAt,value
2017-05-19T00:02:45.197Z,1010.083
2017-05-19T00:05:39.960Z,1010.083
2017-05-19T00:08:34.786Z,1010.074
2017-05-19T00:11:29.562Z,1010.052
2017-05-19T00:17:19.190Z,1010.063
2017-05-19T00:20:14.023Z,1010.029
2017-05-19T00:23:08.872Z,1010.015
2017-05-19T00:26:03.605Z,1010.005
2017-05-19T00:28:58.509Z,1010.004
2017-05-19T00:31:53.398Z,1009.975
2017-05-19T00:34:48.360Z,1009.948
2017-05-19T00:40:38.129Z,1009.935
2017-05-19T00:43:32.928Z,1009.895
2017-05-19T00:46:27.858Z,1009.850
2017-05-19T00:49:22.723Z,1009.825
2017-05-19T00:55:12.582Z,1009.801
2017-05-19T00:58:07.420Z,1009.797
2017-05-19T01:01:02.279Z,1009.825
2017-05-19T01:03:57.278Z,1009.822
2017-05-19T01:06:52.079Z,1009.784
2017-05-19T01:09:47.097Z,1009.762
2017-05-19T01:12:41.951Z,1009.748
2017-05-19T01:15:36.829Z,1009.768
2017-05-19T01:18:31.683Z,1009.802
2017-05-19T01:21:26.607Z,1009.867
2017-05-19T01:24:21.471Z,1009.937
2017-05-19T01:27:16.527Z,1010.005
2017-05-19T01:30:11.396Z,1010.086
2017-05-19T01:33:06.243Z,1010.133
2017-05-19T01:36:01.128Z,1010.169
2017-05-19T01:38:55.983Z,1010.159
2017-05-19T01:41:50.826Z,1010.170
2017-05-19T01:44:45.687Z,1010.204
2017-05-19T01:47:40.541Z,1010.185
2017-05-19T01:50:35.349Z,1010.200
2017-05-19T01:56:25.196Z,1010.166
2017-05-19T01:59:20.171Z,1010.157
2017-05-19T02:02:14.951Z,1010.161
2017-05-19T02:05:09.857Z,1010.129
2017-05-19T02:08:04.667Z,1010.142
2017-05-19T02:10:59.520Z,1010.118
2017-05-19T02:13:54.493Z,1010.088
2017-05-19T02:16:49.378Z,1010.086
2017-05-19T02:19:44.265Z,1010.081
2017-05-19T02:22:39.187Z,1010.058
2017-05-19T02:25:34.079Z,1010.043
2017-05-19T02:28:28.959Z,1009.992
2017-05-19T02:31:23.901Z,1010.017
2017-05-19T02:34:18.829Z,1010.011
2017-05-19T02:45:58.461Z,1010.016
2017-05-19T02:48:53.352Z,1009.984
2017-05-19T02:51:48.201Z,1009.996
2017-05-19T02:54:43.162Z,1009.986
2017-05-19T02:57:38.073Z,1009.986
2017-05-19T03:00:32.947Z,1009.941
2017-05-19T03:03:27.699Z,1009.882
2017-05-19T03:06:22.633Z,1009.882
2017-05-19T03:09:17.404Z,1009.825
2017-05-19T03:12:12.217Z,1009.809
2017-05-19T03:18:01.838Z,1009.864
2017-05-19T03:20:56.769Z,1009.844
2017-05-19T03:23:51.696Z,1009.840
2017-05-19T03:26:46.545Z,1009.817
2017-05-19T03:29:41.425Z,1009.803
2017-05-19T03:32:36.238Z,1009.803
2017-05-19T03:35:31.098Z,1009.775
2017-05-19T03:38:25.957Z,1009.772
2017-05-19T03:41:20.856Z,1009.764
2017-05-19T03:44:15.770Z,1009.721
2017-05-19T03:47:10.651Z,1009.696
2017-05-19T03:50:05.518Z,1009.700
2017-05-19T03:53:00.437Z,1009.725
2017-05-19T03:55:55.645Z,1009.748
2017-05-19T03:58:50.528Z,1009.790
2017-05-19T04:01:45.399Z,1009.811
2017-05-19T04:04:40.304Z,1009.873
2017-05-19T04:07:35.154Z,1009.901
2017-05-19T04:10:30.040Z,1009.923
2017-05-19T04:13:24.917Z,1010.006
2017-05-19T04:16:19.817Z,1010.019
2017-05-19T04:19:14.646Z,1009.958
2017-05-19T04:22:09.499Z,1009.899
2017-05-19T04:25:04.388Z,1009.814
2017-05-19T04:28:21.844Z,1009.773
2017-05-19T04:31:09.678Z,1009.790
2017-05-19T04:34:04.461Z,1009.806
2017-05-19T04:36:59.342Z,1009.851
2017-05-19T04:39:54.194Z,1009.910
2017-05-19T04:42:49.161Z,1009.968
2017-05-19T04:48:39.020Z,1010.046
2017-05-19T04:57:23.807Z,1010.071
2017-05-19T05:00:18.738Z,1009.989
2017-05-19T05:03:13.658Z,1009.983
2017-05-19T05:06:08.617Z,1010.034
2017-05-19T05:09:03.572Z,1010.007
2017-05-19T05:14:53.663Z,1009.866
2017-05-19T05:17:48.540Z,1009.909
2017-05-19T05:20:43.569Z,1009.834
2017-05-19T05:23:38.768Z,1009.803
2017-05-19T05:29:28.915Z,1009.833
2017-05-19T05:32:24.109Z,1009.798
2017-05-19T05:35:19.078Z,1009.886
2017-05-19T05:38:14.209Z,1009.862
2017-05-19T05:41:09.310Z,1009.823
2017-05-19T05:44:04.446Z,1009.858
2017-05-19T05:46:59.386Z,1009.882
2017-05-19T05:49:54.551Z,1009.848
2017-05-19T05:52:49.524Z,1009.898
2017-05-19T05:55:44.691Z,1009.881
2017-05-19T05:58:39.885Z,1009.824
2017-05-19T06:01:34.963Z,1009.760
2017-05-19T06:04:30.056Z,1009.787
2017-05-19T06:07:25.130Z,1009.802
2017-05-19T06:10:20.255Z,1009.831
2017-05-19T06:13:15.384Z,1009.788
2017-05-19T06:16:10.518Z,1009.766
2017-05-19T06:19:05.582Z,1009.781
2017-05-19T06:22:00.787Z,1009.798
2017-05-19T06:24:55.801Z,1009.809
2017-05-19T06:27:51.093Z,1009.768
2017-05-19T06:30:46.122Z,1009.759
2017-05-19T06:33:41.364Z,1009.725
2017-05-19T06:36:36.543Z,1009.734
2017-05-19T06:39:31.688Z,1009.741
2017-05-19T06:42:26.837Z,1009.722
2017-05-19T06:45:22.061Z,1009.742
2017-05-19T06:48:17.299Z,1009.756
2017-05-19T06:51:12.525Z,1009.739
2017-05-19T06:57:02.859Z,1009.748
2017-05-19T06:59:58.080Z,1009.698
2017-05-19T07:02:53.396Z,1009.696
2017-05-19T07:05:48.577Z,1009.701
2017-05-19T07:08:43.815Z,1009.679
2017-05-19T07:11:39.160Z,1009.628
2017-05-19T07:14:34.451Z,1009.631
2017-05-19T07:17:29.697Z,1009.609
2017-05-19T07:23:20.293Z,1009.511
2017-05-19T07:29:10.685Z,1009.517
2017-05-19T07:32:05.893Z,1009.527
2017-05-19T07:35:01.105Z,1009.530
2017-05-19T07:37:56.326Z,1009.501
2017-05-19T07:40:51.576Z,1009.421
2017-05-19T07:43:46.774Z,1009.379
2017-05-19T07:49:37.214Z,1009.309
2017-05-19T07:52:32.507Z,1009.274
2017-05-19T07:55:27.691Z,1009.244
2017-05-19T07:58:23.059Z,1009.230
2017-05-19T08:01:18.420Z,1009.287
2017-05-19T08:04:13.717Z,1009.231
2017-05-19T08:07:09.150Z,1009.160
2017-05-19T08:10:04.571Z,1009.102
2017-05-19T08:12:59.858Z,1009.017
2017-05-19T08:15:55.219Z,1009.004
2017-05-19T08:18:50.610Z,1008.977
2017-05-19T08:21:46.136Z,1008.953
2017-05-19T08:24:41.766Z,1008.891
2017-05-19T08:27:37.416Z,1008.831
2017-05-19T08:33:28.373Z,1008.864
2017-05-19T08:36:23.970Z,1008.897
2017-05-19T08:39:19.606Z,1008.881
2017-05-19T08:45:10.800Z,1008.847
2017-05-19T08:48:06.445Z,1008.869
2017-05-19T08:51:01.994Z,1008.886
2017-05-19T08:53:57.481Z,1008.820
2017-05-19T08:56:52.966Z,1008.793
2017-05-19T08:59:48.223Z,1008.785
2017-05-19T09:02:43.346Z,1008.781
2017-05-19T09:05:38.690Z,1008.711
2017-05-19T09:08:34.080Z,1008.730
2017-05-19T09:11:29.445Z,1008.656
2017-05-19T09:14:24.704Z,1008.687
2017-05-19T09:17:19.989Z,1008.729
2017-05-19T09:20:15.376Z,1008.687
2017-05-19T09:26:05.968Z,1008.726
2017-05-19T09:29:01.334Z,1008.636
2017-05-19T09:31:56.568Z,1008.582
2017-05-19T09:37:47.066Z,1008.557
2017-05-19T09:40:42.501Z,1008.630
2017-05-19T09:43:37.888Z,1008.587
2017-05-19T09:46:33.201Z,1008.597
2017-05-19T09:49:28.645Z,1008.543
2017-05-19T09:52:24.095Z,1008.583
2017-05-19T09:55:19.538Z,1008.560
2017-05-19T10:01:10.536Z,1008.499
2017-05-19T10:04:06.064Z,1008.469
2017-05-19T10:07:01.565Z,1008.472
2017-05-19T10:09:56.974Z,1008.454
2017-05-19T10:12:52.511Z,1008.365
2017-05-19T10:15:47.971Z,1008.417
2017-05-19T10:18:43.539Z,1008.303
2017-05-19T10:21:39.064Z,1008.315
2017-05-19T10:24:34.526Z,1008.234
2017-05-19T10:27:30.099Z,1008.325
2017-05-19T10:30:25.523Z,1008.317
2017-05-19T10:33:20.979Z,1008.256
2017-05-19T10:36:16.420Z,1008.207
2017-05-19T10:39:11.787Z,1008.206
2017-05-19T10:42:07.127Z,1008.195
2017-05-19T10:45:02.500Z,1008.209
2017-05-19T10:47:57.709Z,1008.236
2017-05-19T10:50:52.973Z,1008.242
2017-05-19T10:53:48.264Z,1008.125
2017-05-19T10:56:43.616Z,1008.186
2017-05-19T10:59:38.915Z,1008.170
2017-05-19T11:02:34.193Z,1008.169
2017-05-19T11:05:29.450Z,1008.180
2017-05-19T11:08:24.790Z,1008.240
2017-05-19T11:11:20.100Z,1008.159
2017-05-19T11:14:15.449Z,1008.124
2017-05-19T11:17:10.921Z,1008.126
2017-05-19T11:20:06.302Z,1008.040
2017-05-19T11:23:01.625Z,1008.076
2017-05-19T11:25:56.974Z,1008.041
2017-05-19T11:28:52.385Z,1008.013
2017-05-19T11:34:43.055Z,1008.009
2017-05-19T11:37:38.543Z,1008.004
2017-05-19T11:40:33.954Z,1007.950
2017-05-19T11:43:29.180Z,1007.900
2017-05-19T11:46:24.596Z,1007.868
2017-05-19T11:49:19.887Z,1007.845
2017-05-19T11:55:10.911Z,1007.857
2017-05-19T11:58:06.349Z,1007.816
2017-05-19T12:01:01.769Z,1007.819
2017-05-19T12:03:57.252Z,1007.837
2017-05-19T12:06:52.604Z,1007.777
2017-05-19T12:09:48.035Z,1007.696
2017-05-19T12:12:43.343Z,1007.756
2017-05-19T12:15:38.766Z,1007.712
2017-05-19T12:18:34.194Z,1007.674
2017-05-19T12:21:29.576Z,1007.642
2017-05-19T12:24:24.893Z,1007.649
2017-05-19T12:27:20.287Z,1007.654
2017-05-19T12:33:11.205Z,1007.637
2017-05-19T12:36:06.596Z,1007.670
2017-05-19T12:39:02.070Z,1007.619
2017-05-19T12:41:57.418Z,1007.601
2017-05-19T12:47:48.230Z,1007.623
2017-05-19T12:50:43.505Z,1007.572
2017-05-19T12:53:39.013Z,1007.535
2017-05-19T12:56:34.474Z,1007.571
2017-05-19T12:59:29.811Z,1007.553
2017-05-19T13:05:20.442Z,1007.522
2017-05-19T13:08:15.881Z,1007.535
2017-05-19T13:11:11.331Z,1007.553
2017-05-19T13:14:06.566Z,1007.546
2017-05-19T13:17:01.985Z,1007.480
2017-05-19T13:19:57.296Z,1007.434
2017-05-19T13:22:52.725Z,1007.444
2017-05-19T13:25:47.960Z,1007.434
2017-05-19T13:28:43.378Z,1007.452
2017-05-19T13:31:38.789Z,1007.351
2017-05-19T13:34:34.277Z,1007.355
2017-05-19T13:37:29.497Z,1007.322
2017-05-19T13:40:24.777Z,1007.327
2017-05-19T13:43:20.049Z,1007.304
2017-05-19T13:46:15.211Z,1007.241
2017-05-19T13:49:10.585Z,1007.222
2017-05-19T13:52:05.849Z,1007.203
2017-05-19T13:55:00.961Z,1007.190
2017-05-19T13:57:56.281Z,1007.203
2017-05-19T14:00:51.437Z,1007.189
2017-05-19T14:03:46.629Z,1007.244
2017-05-19T14:06:41.739Z,1007.127
2017-05-19T14:09:36.845Z,1007.122
2017-05-19T14:12:32.089Z,1007.086
2017-05-19T14:15:27.435Z,1007.061
2017-05-19T14:18:22.665Z,1007.070
2017-05-19T14:21:17.876Z,1007.005
2017-05-19T14:24:13.054Z,1006.966
2017-05-19T14:27:08.205Z,1006.946
2017-05-19T14:30:03.338Z,1006.922
2017-05-19T14:32:58.601Z,1006.973
2017-05-19T14:35:53.929Z,1006.938
2017-05-19T14:38:49.339Z,1006.909
2017-05-19T14:41:44.774Z,1006.909
2017-05-19T14:44:40.101Z,1006.888
2017-05-19T14:47:35.332Z,1006.839
2017-05-19T14:50:30.703Z,1006.806
2017-05-19T14:53:25.900Z,1006.830
2017-05-19T14:56:21.201Z,1006.785
2017-05-19T14:59:16.438Z,1006.767
2017-05-19T15:02:11.708Z,1006.742
2017-05-19T15:05:06.949Z,1006.688
2017-05-19T15:08:02.219Z,1006.710
2017-05-19T15:10:57.528Z,1006.700
2017-05-19T15:13:52.918Z,1006.646
2017-05-19T15:16:48.157Z,1006.603
2017-05-19T15:19:43.670Z,1006.552
2017-05-19T15:22:38.597Z,1006.519
2017-05-19T15:25:33.864Z,1006.507
2017-05-19T15:28:29.055Z,1006.510
2017-05-19T15:31:24.261Z,1006.426
2017-05-19T15:34:19.367Z,1006.370
2017-05-19T15:37:14.588Z,1006.303
2017-05-19T15:40:09.908Z,1006.242
2017-05-19T15:43:05.207Z,1006.165
2017-05-19T15:46:00.520Z,1006.105
2017-05-19T15:48:55.824Z,1006.119
2017-05-19T15:51:51.130Z,1006.057
2017-05-19T15:54:46.398Z,1006.068
2017-05-19T15:57:41.687Z,1006.007
2017-05-19T16:00:37.042Z,1006.001
2017-05-19T16:03:32.336Z,1005.954
2017-05-19T16:06:27.695Z,1005.934
2017-05-19T16:09:22.805Z,1005.911
2017-05-19T16:12:18.084Z,1005.923
2017-05-19T16:15:13.408Z,1005.910
2017-05-19T16:21:04.076Z,1005.786
2017-05-19T16:23:59.251Z,1005.728
2017-05-19T16:26:54.584Z,1005.704
2017-05-19T16:29:49.962Z,1005.716
2017-05-19T16:32:45.361Z,1005.713
2017-05-19T16:38:35.727Z,1005.738
2017-05-19T16:41:31.000Z,1005.691
2017-05-19T16:44:26.370Z,1005.734
2017-05-19T16:47:21.475Z,1005.764
2017-05-19T16:50:16.608Z,1005.747
2017-05-19T16:56:06.917Z,1005.938
2017-05-19T17:01:57.282Z,1006.078
2017-05-19T17:04:52.391Z,1006.159
2017-05-19T17:07:47.590Z,1006.213
2017-05-19T17:10:42.795Z,1006.261
2017-05-19T17:13:37.883Z,1006.319
2017-05-19T17:16:33.005Z,1006.431
2017-05-19T17:19:28.101Z,1006.529
2017-05-19T17:22:23.177Z,1006.612
2017-05-19T17:25:18.347Z,1006.659
2017-05-19T17:28:13.390Z,1006.673
2017-05-19T17:31:08.626Z,1006.754
2017-05-19T17:34:03.864Z,1006.796
2017-05-19T17:36:58.928Z,1006.814
2017-05-19T17:39:54.160Z,1006.822
2017-05-19T17:42:49.359Z,1006.863
2017-05-19T17:45:44.660Z,1006.838
2017-05-19T17:48:39.999Z,1006.752
2017-05-19T17:51:35.167Z,1006.654
2017-05-19T17:54:30.363Z,1006.619
2017-05-19T17:57:25.603Z,1006.587
2017-05-19T18:00:20.819Z,1006.512
2017-05-19T18:03:16.023Z,1006.415
2017-05-19T18:06:11.384Z,1006.388
2017-05-19T18:09:06.536Z,1006.395
2017-05-19T18:12:01.802Z,1006.394
2017-05-19T18:14:57.077Z,1006.413
2017-05-19T18:17:52.536Z,1006.414
2017-05-19T18:20:47.796Z,1006.425
2017-05-19T18:23:43.118Z,1006.391
2017-05-19T18:26:38.300Z,1006.336
2017-05-19T18:29:33.517Z,1006.351
2017-05-19T18:32:28.833Z,1006.365
2017-05-19T18:35:23.985Z,1006.323
2017-05-19T18:41:14.670Z,1006.346
2017-05-19T18:47:05.274Z,1006.478
2017-05-19T18:50:00.632Z,1006.560
2017-05-19T18:52:55.880Z,1006.567
2017-05-19T18:58:46.422Z,1006.534
2017-05-19T19:01:41.737Z,1006.574
2017-05-19T19:04:36.929Z,1006.554
2017-05-19T19:07:32.221Z,1006.538
2017-05-19T19:10:27.470Z,1006.542
2017-05-19T19:13:22.820Z,1006.605
2017-05-19T19:16:18.033Z,1006.686
2017-05-19T19:19:13.243Z,1006.798
2017-05-19T19:22:08.547Z,1006.939
2017-05-19T19:25:03.826Z,1007.040
2017-05-19T19:27:59.148Z,1007.096
2017-05-19T19:30:54.458Z,1007.134
2017-05-19T19:33:49.746Z,1007.134
2017-05-19T19:36:44.952Z,1007.116
2017-05-19T19:39:40.100Z,1007.165
2017-05-19T19:42:35.486Z,1007.185
2017-05-19T19:45:30.747Z,1007.178
2017-05-19T19:48:26.002Z,1007.260
2017-05-19T19:51:21.272Z,1007.268
2017-05-19T19:54:16.556Z,1007.247
2017-05-19T19:57:11.823Z,1007.236
2017-05-19T20:00:07.054Z,1007.248
2017-05-19T20:03:02.385Z,1007.261
2017-05-19T20:05:57.621Z,1007.250
2017-05-19T20:08:52.930Z,1007.252
2017-05-19T20:11:48.119Z,1007.230
2017-05-19T20:14:43.427Z,1007.223
2017-05-19T20:17:38.694Z,1007.218
2017-05-19T20:20:33.929Z,1007.227
2017-05-19T20:23:29.127Z,1007.201
2017-05-19T20:26:24.366Z,1007.144
2017-05-19T20:29:19.611Z,1007.152
2017-05-19T20:32:14.914Z,1007.183
2017-05-19T20:35:10.106Z,1007.251
2017-05-19T20:38:05.265Z,1007.319
2017-05-19T20:41:00.349Z,1007.337
2017-05-19T20:43:55.639Z,1007.374
2017-05-19T20:46:50.770Z,1007.393
2017-05-19T20:52:41.418Z,1007.397
2017-05-19T20:55:36.659Z,1007.367
2017-05-19T20:58:31.940Z,1007.364
2017-05-19T21:01:27.096Z,1007.346
2017-05-19T21:04:22.472Z,1007.738
2017-05-19T21:07:17.844Z,1007.702
2017-05-19T21:13:08.040Z,1007.907
2017-05-19T21:18:58.511Z,1008.054
2017-05-19T21:21:53.784Z,1008.173
2017-05-19T21:24:48.948Z,1008.276
2017-05-19T21:30:39.687Z,1008.266
2017-05-19T21:33:34.916Z,1008.329
2017-05-19T21:36:30.044Z,1008.371
2017-05-19T21:39:25.285Z,1008.407
2017-05-19T21:42:20.507Z,1008.382
2017-05-19T21:45:15.653Z,1008.454
2017-05-19T21:48:10.929Z,1008.523
2017-05-19T21:51:06.068Z,1008.538
2017-05-19T21:54:01.279Z,1008.568
2017-05-19T21:56:56.518Z,1008.676
2017-05-19T21:59:51.704Z,1008.678
2017-05-19T22:02:46.933Z,1008.711
2017-05-19T22:05:42.090Z,1008.808
2017-05-19T22:08:37.366Z,1008.844
2017-05-19T22:11:32.583Z,1008.991
2017-05-19T22:14:27.726Z,1008.961
2017-05-19T22:17:22.885Z,1009.002
2017-05-19T22:20:18.056Z,1009.007
2017-05-19T22:23:13.201Z,1009.069
2017-05-19T22:26:08.335Z,1009.125
2017-05-19T22:29:03.447Z,1009.213
2017-05-19T22:31:58.583Z,1009.270
2017-05-19T22:34:53.625Z,1009.231
2017-05-19T22:37:48.779Z,1009.276
2017-05-19T22:43:39.286Z,1009.419
2017-05-19T22:46:34.352Z,1009.456
2017-05-19T22:49:29.552Z,1009.432
2017-05-19T22:52:24.696Z,1009.501
2017-05-19T22:55:19.755Z,1009.605
2017-05-19T22:58:14.964Z,1009.841
2017-05-19T23:01:09.979Z,1010.001
2017-05-19T23:04:05.109Z,1009.984
2017-05-19T23:07:00.138Z,1009.852
2017-05-19T23:09:55.289Z,1010.051
2017-05-19T23:12:50.477Z,1010.173
2017-05-19T23:15:45.579Z,1010.286
2017-05-19T23:18:40.638Z,1010.358
2017-05-19T23:21:35.731Z,1010.532
2017-05-19T23:24:30.810Z,1010.582
2017-05-19T23:27:25.931Z,1010.634
2017-05-19T23:30:20.951Z,1010.619
2017-05-19T23:33:16.111Z,1010.725
2017-05-19T23:36:11.094Z,1010.743
2017-05-19T23:39:06.450Z,1010.817
2017-05-19T23:42:01.379Z,1010.764
2017-05-19T23:44:56.417Z,1010.825
2017-05-19T23:47:51.505Z,1010.895
2017-05-19T23:50:46.488Z,1011.037
2017-05-19T23:53:41.459Z,1011.044
2017-05-19T23:56:36.592Z,1011.077
2017-05-19T23:59:31.573Z,1011.100
